Weather at Cut and Shoot Airport [CLOSED]

Public forecast

Using degrees Fahrenheit for public forecast. Weather courtesy of forecast.io.

Closest aviation weather report (METAR) to Cut and Shoot Airport

Closest report is Conroe-North Houston Regional Airport, 5.1 nm (9.4 km) WNW.

2024/03/01 00:53 (retrieved 55 minutes ago)

KCXO 010053Z 03005KT 10SM OVC025 10/02 A3018 RMK AO2 SLP217 T01000022

Closest aviation forecast (TAF) to Cut and Shoot Airport

Closest forecast is Randolph Air Force Base, 160.7 nm (297.5 km) WSW.

2024/02/29 21:36 Ammendment (retrieved 4 hours ago)

AMD KRND 292120Z 2921/0123 06010KT 9999 VCSH BKN020 OVC040 510053 QNH3012INS TEMPO 2921/2923 1600 -DZ BR BKN007 OVC020 BECMG 0101/0102 VRB06KT 9999 VCSH BKN015 OVC040 510053 QNH3013INS BECMG 0105/0106 VRB06KT 9999 NSW BKN015 OVC040 510053 QNH3015INS BECMG 0110/0111 VRB06KT 9000 BR BKN010 BKN180 QNH3005INS BECMG 0114/0115 15007KT 9999 NSW FEW015 BKN030 QNH3005INS BECMG 0116/0117 15010KT 9999 SCT030 BKN250 QNH3005INS TX12/0117Z TN06/0112Z LAST NO AMDS AFT 0101 NEXT 0111